sensor_id;sensor_type;location;lat;lon;timestamp;P1;durP1;ratioP1;P2;durP2;ratioP2
59492;SDS011;45497;43.996;22.876;2023-04-03T00:01:11;9.98;;;3.97;;
59492;SDS011;45497;43.996;22.876;2023-04-03T00:03:37;10.00;;;4.03;;
59492;SDS011;45497;43.996;22.876;2023-04-03T00:06:03;11.32;;;4.32;;
59492;SDS011;45497;43.996;22.876;2023-04-03T00:08:31;6.97;;;3.65;;
59492;SDS011;45497;43.996;22.876;2023-04-03T00:10:57;8.15;;;4.00;;
59492;SDS011;45497;43.996;22.876;2023-04-03T00:13:23;7.82;;;3.65;;
59492;SDS011;45497;43.996;22.876;2023-04-03T00:15:49;8.88;;;3.45;;
59492;SDS011;45497;43.996;22.876;2023-04-03T00:18:14;9.13;;;3.53;;
59492;SDS011;45497;43.996;22.876;2023-04-03T00:20:40;9.65;;;3.80;;
59492;SDS011;45497;43.996;22.876;2023-04-03T00:23:06;9.00;;;3.78;;
59492;SDS011;45497;43.996;22.876;2023-04-03T00:25:31;8.35;;;3.65;;
59492;SDS011;45497;43.996;22.876;2023-04-03T00:27:58;9.07;;;3.55;;
59492;SDS011;45497;43.996;22.876;2023-04-03T00:30:24;10.27;;;3.78;;
59492;SDS011;45497;43.996;22.876;2023-04-03T00:32:50;6.30;;;3.38;;
59492;SDS011;45497;43.996;22.876;2023-04-03T00:35:17;9.35;;;3.83;;
59492;SDS011;45497;43.996;22.876;2023-04-03T00:37:44;7.97;;;3.60;;
59492;SDS011;45497;43.996;22.876;2023-04-03T00:40:10;9.80;;;3.77;;
59492;SDS011;45497;43.996;22.876;2023-04-03T00:42:38;10.18;;;3.70;;
59492;SDS011;45497;43.996;22.876;2023-04-03T00:47:31;9.77;;;4.45;;
59492;SDS011;45497;43.996;22.876;2023-04-03T00:49:57;9.55;;;3.85;;
59492;SDS011;45497;43.996;22.876;2023-04-03T00:52:25;10.15;;;3.50;;
59492;SDS011;45497;43.996;22.876;2023-04-03T00:54:56;6.17;;;3.37;;
59492;SDS011;45497;43.996;22.876;2023-04-03T00:57:24;10.15;;;3.60;;
59492;SDS011;45497;43.996;22.876;2023-04-03T00:59:52;9.05;;;3.50;;
59492;SDS011;45497;43.996;22.876;2023-04-03T01:02:22;6.53;;;3.00;;
59492;SDS011;45497;43.996;22.876;2023-04-03T01:04:48;7.60;;;3.10;;
59492;SDS011;45497;43.996;22.876;2023-04-03T01:07:17;7.43;;;2.80;;
59492;SDS011;45497;43.996;22.876;2023-04-03T01:09:48;9.18;;;3.38;;
59492;SDS011;45497;43.996;22.876;2023-04-03T01:14:45;5.50;;;2.60;;
59492;SDS011;45497;43.996;22.876;2023-04-03T01:28:05;7.85;;;2.63;;
59492;SDS011;45497;43.996;22.876;2023-04-03T01:30:34;8.88;;;3.00;;
59492;SDS011;45497;43.996;22.876;2023-04-03T01:33:06;8.00;;;2.60;;
59492;SDS011;45497;43.996;22.876;2023-04-03T01:35:32;6.25;;;2.40;;
59492;SDS011;45497;43.996;22.876;2023-04-03T01:37:57;7.70;;;2.50;;
59492;SDS011;45497;43.996;22.876;2023-04-03T01:40:22;5.60;;;2.15;;
59492;SDS011;45497;43.996;22.876;2023-04-03T01:42:48;5.40;;;2.07;;
59492;SDS011;45497;43.996;22.876;2023-04-03T01:45:13;6.22;;;2.20;;
59492;SDS011;45497;43.996;22.876;2023-04-03T01:47:39;6.90;;;2.17;;
59492;SDS011;45497;43.996;22.876;2023-04-03T01:50:05;8.30;;;2.30;;
59492;SDS011;45497;43.996;22.876;2023-04-03T01:52:30;6.67;;;2.13;;
59492;SDS011;45497;43.996;22.876;2023-04-03T01:54:56;7.10;;;2.13;;
59492;SDS011;45497;43.996;22.876;2023-04-03T01:57:21;8.53;;;2.50;;
59492;SDS011;45497;43.996;22.876;2023-04-03T01:59:47;6.67;;;2.13;;
59492;SDS011;45497;43.996;22.876;2023-04-03T02:02:12;5.90;;;2.10;;
59492;SDS011;45497;43.996;22.876;2023-04-03T02:04:39;6.88;;;2.35;;
59492;SDS011;45497;43.996;22.876;2023-04-03T02:07:05;7.13;;;2.40;;
59492;SDS011;45497;43.996;22.876;2023-04-03T02:09:31;7.83;;;2.50;;
59492;SDS011;45497;43.996;22.876;2023-04-03T02:11:56;8.35;;;2.30;;
59492;SDS011;45497;43.996;22.876;2023-04-03T02:14:22;5.57;;;2.20;;
59492;SDS011;45497;43.996;22.876;2023-04-03T02:16:48;6.85;;;2.13;;
59492;SDS011;45497;43.996;22.876;2023-04-03T02:19:14;5.63;;;2.00;;
59492;SDS011;45497;43.996;22.876;2023-04-03T02:21:40;7.27;;;2.20;;
59492;SDS011;45497;43.996;22.876;2023-04-03T02:24:06;6.57;;;2.40;;
59492;SDS011;45497;43.996;22.876;2023-04-03T02:26:31;8.20;;;2.67;;
59492;SDS011;45497;43.996;22.876;2023-04-03T02:28:57;8.33;;;2.43;;
59492;SDS011;45497;43.996;22.876;2023-04-03T02:31:22;7.05;;;2.33;;
59492;SDS011;45497;43.996;22.876;2023-04-03T02:33:49;7.95;;;2.35;;
59492;SDS011;45497;43.996;22.876;2023-04-03T02:36:15;7.38;;;2.70;;
59492;SDS011;45497;43.996;22.876;2023-04-03T02:38:41;8.63;;;2.50;;
59492;SDS011;45497;43.996;22.876;2023-04-03T02:41:07;10.33;;;2.90;;
59492;SDS011;45497;43.996;22.876;2023-04-03T02:43:35;7.10;;;2.60;;
59492;SDS011;45497;43.996;22.876;2023-04-03T02:46:01;6.40;;;2.55;;
59492;SDS011;45497;43.996;22.876;2023-04-03T02:48:27;9.48;;;2.50;;
59492;SDS011;45497;43.996;22.876;2023-04-03T02:50:52;6.00;;;2.45;;
59492;SDS011;45497;43.996;22.876;2023-04-03T02:53:18;6.13;;;2.60;;
59492;SDS011;45497;43.996;22.876;2023-04-03T02:55:44;6.97;;;2.30;;
59492;SDS011;45497;43.996;22.876;2023-04-03T02:58:10;10.37;;;4.37;;
59492;SDS011;45497;43.996;22.876;2023-04-03T03:00:36;10.40;;;7.70;;
59492;SDS011;45497;43.996;22.876;2023-04-03T03:03:02;13.80;;;10.85;;
59492;SDS011;45497;43.996;22.876;2023-04-03T03:05:28;6.18;;;2.97;;
59492;SDS011;45497;43.996;22.876;2023-04-03T03:07:54;5.65;;;2.72;;
59492;SDS011;45497;43.996;22.876;2023-04-03T03:10:20;5.40;;;3.03;;
59492;SDS011;45497;43.996;22.876;2023-04-03T03:12:46;7.22;;;2.90;;
59492;SDS011;45497;43.996;22.876;2023-04-03T03:15:11;5.80;;;2.38;;
59492;SDS011;45497;43.996;22.876;2023-04-03T03:17:37;7.10;;;2.42;;
59492;SDS011;45497;43.996;22.876;2023-04-03T03:20:04;3.63;;;2.30;;
59492;SDS011;45497;43.996;22.876;2023-04-03T03:22:30;7.40;;;3.60;;
59492;SDS011;45497;43.996;22.876;2023-04-03T03:24:56;17.02;;;7.32;;
59492;SDS011;45497;43.996;22.876;2023-04-03T03:27:21;19.80;;;9.70;;
59492;SDS011;45497;43.996;22.876;2023-04-03T03:29:47;20.77;;;8.70;;
59492;SDS011;45497;43.996;22.876;2023-04-03T03:32:12;18.70;;;8.40;;
59492;SDS011;45497;43.996;22.876;2023-04-03T03:34:38;21.70;;;10.17;;
59492;SDS011;45497;43.996;22.876;2023-04-03T03:37:03;18.70;;;9.30;;
59492;SDS011;45497;43.996;22.876;2023-04-03T03:39:29;24.90;;;11.30;;
59492;SDS011;45497;43.996;22.876;2023-04-03T03:41:55;23.98;;;10.63;;
59492;SDS011;45497;43.996;22.876;2023-04-03T03:44:20;24.13;;;11.73;;
59492;SDS011;45497;43.996;22.876;2023-04-03T03:46:46;24.30;;;12.15;;
59492;SDS011;45497;43.996;22.876;2023-04-03T03:49:12;25.80;;;11.32;;
59492;SDS011;45497;43.996;22.876;2023-04-03T03:51:38;9.57;;;5.03;;
59492;SDS011;45497;43.996;22.876;2023-04-03T03:54:04;7.00;;;3.72;;
59492;SDS011;45497;43.996;22.876;2023-04-03T03:56:30;5.32;;;3.20;;
59492;SDS011;45497;43.996;22.876;2023-04-03T03:58:56;4.72;;;2.80;;
59492;SDS011;45497;43.996;22.876;2023-04-03T04:01:22;11.98;;;3.70;;
59492;SDS011;45497;43.996;22.876;2023-04-03T04:03:48;8.37;;;3.53;;
59492;SDS011;45497;43.996;22.876;2023-04-03T04:06:13;5.60;;;3.30;;
59492;SDS011;45497;43.996;22.876;2023-04-03T04:08:40;8.88;;;3.75;;
59492;SDS011;45497;43.996;22.876;2023-04-03T04:11:06;7.25;;;3.80;;
59492;SDS011;45497;43.996;22.876;2023-04-03T04:13:32;8.82;;;3.90;;
59492;SDS011;45497;43.996;22.876;2023-04-03T04:15:58;9.02;;;4.18;;
59492;SDS011;45497;43.996;22.876;2023-04-03T04:18:23;7.53;;;4.40;;
59492;SDS011;45497;43.996;22.876;2023-04-03T04:20:49;8.00;;;4.20;;
59492;SDS011;45497;43.996;22.876;2023-04-03T04:23:15;9.20;;;4.17;;
59492;SDS011;45497;43.996;22.876;2023-04-03T04:25:44;12.20;;;4.68;;
59492;SDS011;45497;43.996;22.876;2023-04-03T04:28:13;10.18;;;4.43;;
59492;SDS011;45497;43.996;22.876;2023-04-03T04:30:38;5.27;;;3.80;;
59492;SDS011;45497;43.996;22.876;2023-04-03T04:33:04;7.93;;;5.60;;
59492;SDS011;45497;43.996;22.876;2023-04-03T04:35:30;8.95;;;4.47;;
59492;SDS011;45497;43.996;22.876;2023-04-03T04:37:55;12.27;;;5.67;;
59492;SDS011;45497;43.996;22.876;2023-04-03T04:40:21;10.03;;;5.93;;
59492;SDS011;45497;43.996;22.876;2023-04-03T04:42:46;12.03;;;6.50;;
59492;SDS011;45497;43.996;22.876;2023-04-03T04:45:12;17.80;;;11.13;;
59492;SDS011;45497;43.996;22.876;2023-04-03T04:47:38;17.35;;;9.77;;
59492;SDS011;45497;43.996;22.876;2023-04-03T04:50:03;15.80;;;11.00;;
59492;SDS011;45497;43.996;22.876;2023-04-03T04:52:29;14.25;;;8.65;;
59492;SDS011;45497;43.996;22.876;2023-04-03T04:54:55;18.83;;;9.27;;
59492;SDS011;45497;43.996;22.876;2023-04-03T04:57:20;16.90;;;9.05;;
59492;SDS011;45497;43.996;22.876;2023-04-03T04:59:46;16.27;;;9.77;;
59492;SDS011;45497;43.996;22.876;2023-04-03T05:02:11;16.37;;;8.50;;
59492;SDS011;45497;43.996;22.876;2023-04-03T05:04:37;15.60;;;8.77;;
59492;SDS011;45497;43.996;22.876;2023-04-03T05:07:03;17.60;;;8.83;;
59492;SDS011;45497;43.996;22.876;2023-04-03T05:09:28;12.10;;;7.38;;
59492;SDS011;45497;43.996;22.876;2023-04-03T05:11:54;10.57;;;5.53;;
59492;SDS011;45497;43.996;22.876;2023-04-03T05:14:19;11.90;;;5.30;;
59492;SDS011;45497;43.996;22.876;2023-04-03T05:16:45;9.87;;;5.90;;
59492;SDS011;45497;43.996;22.876;2023-04-03T05:19:10;12.35;;;5.85;;
59492;SDS011;45497;43.996;22.876;2023-04-03T05:21:36;10.80;;;5.07;;
59492;SDS011;45497;43.996;22.876;2023-04-03T05:24:01;13.52;;;6.15;;
59492;SDS011;45497;43.996;22.876;2023-04-03T05:26:28;11.57;;;6.10;;
59492;SDS011;45497;43.996;22.876;2023-04-03T05:28:55;13.15;;;6.32;;
59492;SDS011;45497;43.996;22.876;2023-04-03T05:31:20;16.50;;;5.63;;
59492;SDS011;45497;43.996;22.876;2023-04-03T05:33:46;7.35;;;4.53;;
59492;SDS011;45497;43.996;22.876;2023-04-03T05:36:12;7.65;;;4.35;;
59492;SDS011;45497;43.996;22.876;2023-04-03T05:38:37;7.10;;;4.40;;
59492;SDS011;45497;43.996;22.876;2023-04-03T05:41:03;8.98;;;4.53;;
59492;SDS011;45497;43.996;22.876;2023-04-03T05:43:29;5.53;;;3.83;;
59492;SDS011;45497;43.996;22.876;2023-04-03T05:45:55;7.23;;;3.50;;
59492;SDS011;45497;43.996;22.876;2023-04-03T05:48:20;5.18;;;3.60;;
59492;SDS011;45497;43.996;22.876;2023-04-03T05:50:46;6.87;;;3.53;;
59492;SDS011;45497;43.996;22.876;2023-04-03T05:53:19;6.37;;;3.30;;
59492;SDS011;45497;43.996;22.876;2023-04-03T05:55:50;8.70;;;3.70;;
59492;SDS011;45497;43.996;22.876;2023-04-03T05:58:15;5.72;;;3.00;;
59492;SDS011;45497;43.996;22.876;2023-04-03T06:00:40;5.37;;;3.10;;
59492;SDS011;45497;43.996;22.876;2023-04-03T06:03:06;5.77;;;3.13;;
59492;SDS011;45497;43.996;22.876;2023-04-03T06:05:32;4.93;;;3.05;;
59492;SDS011;45497;43.996;22.876;2023-04-03T06:07:58;6.25;;;2.90;;
59492;SDS011;45497;43.996;22.876;2023-04-03T06:10:23;4.70;;;2.43;;
59492;SDS011;45497;43.996;22.876;2023-04-03T06:12:49;5.53;;;2.63;;
59492;SDS011;45497;43.996;22.876;2023-04-03T06:15:15;6.05;;;2.90;;
59492;SDS011;45497;43.996;22.876;2023-04-03T06:17:42;6.70;;;3.05;;
59492;SDS011;45497;43.996;22.876;2023-04-03T06:20:07;9.77;;;3.30;;
59492;SDS011;45497;43.996;22.876;2023-04-03T06:22:34;6.33;;;2.87;;
59492;SDS011;45497;43.996;22.876;2023-04-03T06:25:00;8.48;;;3.80;;
59492;SDS011;45497;43.996;22.876;2023-04-03T06:27:26;9.88;;;3.60;;
59492;SDS011;45497;43.996;22.876;2023-04-03T06:29:51;6.17;;;2.63;;
59492;SDS011;45497;43.996;22.876;2023-04-03T06:32:17;6.47;;;2.88;;
59492;SDS011;45497;43.996;22.876;2023-04-03T06:34:42;7.83;;;3.10;;
59492;SDS011;45497;43.996;22.876;2023-04-03T06:37:15;5.70;;;3.10;;
59492;SDS011;45497;43.996;22.876;2023-04-03T06:39:43;5.18;;;2.40;;
59492;SDS011;45497;43.996;22.876;2023-04-03T06:42:08;3.65;;;2.67;;
59492;SDS011;45497;43.996;22.876;2023-04-03T06:44:34;5.15;;;2.40;;
59492;SDS011;45497;43.996;22.876;2023-04-03T06:47:00;4.77;;;2.00;;
59492;SDS011;45497;43.996;22.876;2023-04-03T06:49:26;6.03;;;1.93;;
59492;SDS011;45497;43.996;22.876;2023-04-03T06:51:51;4.40;;;2.17;;
59492;SDS011;45497;43.996;22.876;2023-04-03T06:54:17;5.60;;;2.60;;
59492;SDS011;45497;43.996;22.876;2023-04-03T06:56:43;6.13;;;2.50;;
59492;SDS011;45497;43.996;22.876;2023-04-03T06:59:09;11.55;;;3.03;;
59492;SDS011;45497;43.996;22.876;2023-04-03T07:01:37;9.05;;;2.63;;
59492;SDS011;45497;43.996;22.876;2023-04-03T07:04:02;7.28;;;2.60;;
59492;SDS011;45497;43.996;22.876;2023-04-03T07:06:28;2.47;;;1.77;;
59492;SDS011;45497;43.996;22.876;2023-04-03T07:08:54;5.75;;;2.50;;
59492;SDS011;45497;43.996;22.876;2023-04-03T07:11:20;7.10;;;2.83;;
59492;SDS011;45497;43.996;22.876;2023-04-03T07:13:45;4.97;;;2.30;;
59492;SDS011;45497;43.996;22.876;2023-04-03T07:16:11;2.60;;;1.90;;
59492;SDS011;45497;43.996;22.876;2023-04-03T07:18:37;3.53;;;1.70;;
59492;SDS011;45497;43.996;22.876;2023-04-03T07:21:03;3.33;;;1.97;;
59492;SDS011;45497;43.996;22.876;2023-04-03T07:23:29;4.57;;;2.00;;
59492;SDS011;45497;43.996;22.876;2023-04-03T07:25:55;7.03;;;2.20;;
59492;SDS011;45497;43.996;22.876;2023-04-03T07:28:21;3.42;;;1.88;;
59492;SDS011;45497;43.996;22.876;2023-04-03T07:31:10;3.72;;;2.00;;
59492;SDS011;45497;43.996;22.876;2023-04-03T07:33:38;4.20;;;1.93;;
59492;SDS011;45497;43.996;22.876;2023-04-03T07:36:05;5.68;;;2.10;;
59492;SDS011;45497;43.996;22.876;2023-04-03T07:38:31;2.55;;;1.77;;
59492;SDS011;45497;43.996;22.876;2023-04-03T07:40:57;5.05;;;2.10;;
59492;SDS011;45497;43.996;22.876;2023-04-03T07:43:23;3.83;;;1.80;;
59492;SDS011;45497;43.996;22.876;2023-04-03T07:45:50;4.32;;;2.00;;
59492;SDS011;45497;43.996;22.876;2023-04-03T07:48:16;5.57;;;2.20;;
59492;SDS011;45497;43.996;22.876;2023-04-03T07:50:46;3.70;;;2.05;;
59492;SDS011;45497;43.996;22.876;2023-04-03T07:53:12;7.82;;;2.20;;
59492;SDS011;45497;43.996;22.876;2023-04-03T07:55:38;4.60;;;2.20;;
59492;SDS011;45497;43.996;22.876;2023-04-03T07:58:09;4.15;;;1.98;;
59492;SDS011;45497;43.996;22.876;2023-04-03T08:00:39;3.45;;;1.75;;
59492;SDS011;45497;43.996;22.876;2023-04-03T08:03:06;2.67;;;1.90;;
59492;SDS011;45497;43.996;22.876;2023-04-03T08:05:42;6.25;;;2.10;;
59492;SDS011;45497;43.996;22.876;2023-04-03T08:08:12;4.65;;;1.88;;
59492;SDS011;45497;43.996;22.876;2023-04-03T08:10:40;4.00;;;1.88;;
59492;SDS011;45497;43.996;22.876;2023-04-03T08:13:06;2.88;;;1.60;;
59492;SDS011;45497;43.996;22.876;2023-04-03T08:15:33;2.95;;;1.70;;
59492;SDS011;45497;43.996;22.876;2023-04-03T08:17:59;6.80;;;1.60;;
59492;SDS011;45497;43.996;22.876;2023-04-03T08:20:26;3.63;;;1.80;;
59492;SDS011;45497;43.996;22.876;2023-04-03T08:22:52;2.47;;;1.67;;
59492;SDS011;45497;43.996;22.876;2023-04-03T08:25:18;5.25;;;1.80;;
59492;SDS011;45497;43.996;22.876;2023-04-03T08:27:43;2.55;;;1.40;;
59492;SDS011;45497;43.996;22.876;2023-04-03T08:30:09;3.03;;;1.45;;
59492;SDS011;45497;43.996;22.876;2023-04-03T08:32:35;2.80;;;1.40;;
59492;SDS011;45497;43.996;22.876;2023-04-03T08:35:02;3.33;;;1.60;;
59492;SDS011;45497;43.996;22.876;2023-04-03T08:37:28;4.18;;;1.60;;
59492;SDS011;45497;43.996;22.876;2023-04-03T08:39:54;1.53;;;1.30;;
59492;SDS011;45497;43.996;22.876;2023-04-03T08:45:01;2.63;;;1.50;;
59492;SDS011;45497;43.996;22.876;2023-04-03T08:50:07;2.20;;;1.40;;
59492;SDS011;45497;43.996;22.876;2023-04-03T08:55:27;6.15;;;1.77;;
59492;SDS011;45497;43.996;22.876;2023-04-03T08:58:06;2.38;;;1.45;;
59492;SDS011;45497;43.996;22.876;2023-04-03T09:03:11;6.40;;;1.75;;
59492;SDS011;45497;43.996;22.876;2023-04-03T09:06:02;3.10;;;1.30;;
59492;SDS011;45497;43.996;22.876;2023-04-03T09:11:20;3.17;;;1.45;;
59492;SDS011;45497;43.996;22.876;2023-04-03T09:16:49;2.25;;;1.30;;
59492;SDS011;45497;43.996;22.876;2023-04-03T09:21:58;2.50;;;1.30;;
59492;SDS011;45497;43.996;22.876;2023-04-03T09:24:48;2.05;;;1.10;;
59492;SDS011;45497;43.996;22.876;2023-04-03T09:27:21;4.25;;;1.30;;
59492;SDS011;45497;43.996;22.876;2023-04-03T09:29:46;5.67;;;1.50;;
59492;SDS011;45497;43.996;22.876;2023-04-03T09:32:18;3.10;;;1.08;;
59492;SDS011;45497;43.996;22.876;2023-04-03T09:34:51;2.50;;;1.10;;
59492;SDS011;45497;43.996;22.876;2023-04-03T09:37:36;2.25;;;1.65;;
59492;SDS011;45497;43.996;22.876;2023-04-03T09:45:46;3.47;;;1.08;;
59492;SDS011;45497;43.996;22.876;2023-04-03T09:51:00;2.08;;;0.98;;
59492;SDS011;45497;43.996;22.876;2023-04-03T09:53:29;1.73;;;0.75;;
59492;SDS011;45497;43.996;22.876;2023-04-03T09:55:58;1.77;;;0.90;;
59492;SDS011;45497;43.996;22.876;2023-04-03T09:58:26;4.07;;;1.30;;
59492;SDS011;45497;43.996;22.876;2023-04-03T10:00:55;2.70;;;0.90;;
59492;SDS011;45497;43.996;22.876;2023-04-03T10:03:33;4.90;;;1.10;;
59492;SDS011;45497;43.996;22.876;2023-04-03T10:06:01;1.80;;;0.90;;
59492;SDS011;45497;43.996;22.876;2023-04-03T10:08:32;2.10;;;1.20;;
59492;SDS011;45497;43.996;22.876;2023-04-03T10:11:17;2.30;;;1.20;;
59492;SDS011;45497;43.996;22.876;2023-04-03T10:13:54;6.57;;;1.70;;
59492;SDS011;45497;43.996;22.876;2023-04-03T10:19:29;2.33;;;1.00;;
59492;SDS011;45497;43.996;22.876;2023-04-03T10:22:43;1.77;;;1.10;;
59492;SDS011;45497;43.996;22.876;2023-04-03T10:33:56;5.80;;;1.77;;
59492;SDS011;45497;43.996;22.876;2023-04-03T10:39:59;3.28;;;1.40;;
59492;SDS011;45497;43.996;22.876;2023-04-03T11:01:45;1.80;;;1.23;;
59492;SDS011;45497;43.996;22.876;2023-04-03T11:04:16;3.20;;;1.20;;
59492;SDS011;45497;43.996;22.876;2023-04-03T11:06:49;1.75;;;1.00;;
59492;SDS011;45497;43.996;22.876;2023-04-03T11:09:26;2.75;;;1.40;;
59492;SDS011;45497;43.996;22.876;2023-04-03T11:11:56;3.38;;;1.25;;
59492;SDS011;45497;43.996;22.876;2023-04-03T11:14:28;3.08;;;1.30;;
59492;SDS011;45497;43.996;22.876;2023-04-03T11:17:01;2.80;;;1.30;;
59492;SDS011;45497;43.996;22.876;2023-04-03T11:19:39;1.95;;;1.30;;
59492;SDS011;45497;43.996;22.876;2023-04-03T11:22:16;4.10;;;1.50;;
59492;SDS011;45497;43.996;22.876;2023-04-03T11:24:55;2.65;;;1.75;;
59492;SDS011;45497;43.996;22.876;2023-04-03T11:27:27;5.30;;;2.80;;
59492;SDS011;45497;43.996;22.876;2023-04-03T11:30:02;3.80;;;2.15;;
59492;SDS011;45497;43.996;22.876;2023-04-03T11:35:14;1.98;;;1.42;;
59492;SDS011;45497;43.996;22.876;2023-04-03T11:37:47;4.15;;;1.60;;
59492;SDS011;45497;43.996;22.876;2023-04-03T11:42:44;2.17;;;1.50;;
59492;SDS011;45497;43.996;22.876;2023-04-03T11:45:16;2.95;;;1.42;;
59492;SDS011;45497;43.996;22.876;2023-04-03T11:50:32;2.53;;;1.67;;
59492;SDS011;45497;43.996;22.876;2023-04-03T12:22:04;2.37;;;1.70;;
59492;SDS011;45497;43.996;22.876;2023-04-03T12:26:48;2.47;;;1.85;;
59492;SDS011;45497;43.996;22.876;2023-04-03T12:45:53;2.85;;;1.70;;
59492;SDS011;45497;43.996;22.876;2023-04-03T12:48:17;4.15;;;1.92;;
59492;SDS011;45497;43.996;22.876;2023-04-03T12:50:47;4.80;;;2.30;;
59492;SDS011;45497;43.996;22.876;2023-04-03T12:58:52;2.58;;;1.73;;
59492;SDS011;45497;43.996;22.876;2023-04-03T13:01:25;4.20;;;2.10;;
59492;SDS011;45497;43.996;22.876;2023-04-03T13:03:55;3.80;;;2.10;;
59492;SDS011;45497;43.996;22.876;2023-04-03T13:06:41;3.00;;;1.90;;
59492;SDS011;45497;43.996;22.876;2023-04-03T13:09:21;2.78;;;1.73;;
59492;SDS011;45497;43.996;22.876;2023-04-03T13:11:47;3.45;;;2.30;;
59492;SDS011;45497;43.996;22.876;2023-04-03T13:14:16;5.22;;;2.33;;
59492;SDS011;45497;43.996;22.876;2023-04-03T13:17:26;3.00;;;2.35;;
59492;SDS011;45497;43.996;22.876;2023-04-03T13:19:37;5.13;;;2.40;;
59492;SDS011;45497;43.996;22.876;2023-04-03T13:24:58;2.90;;;2.30;;
59492;SDS011;45497;43.996;22.876;2023-04-03T13:27:26;5.10;;;2.65;;
59492;SDS011;45497;43.996;22.876;2023-04-03T13:29:56;4.10;;;2.35;;
59492;SDS011;45497;43.996;22.876;2023-04-03T13:32:24;4.85;;;2.40;;
59492;SDS011;45497;43.996;22.876;2023-04-03T13:34:51;3.77;;;2.30;;
59492;SDS011;45497;43.996;22.876;2023-04-03T13:37:27;3.58;;;2.47;;
59492;SDS011;45497;43.996;22.876;2023-04-03T13:42:33;3.13;;;2.13;;
59492;SDS011;45497;43.996;22.876;2023-04-03T13:48:38;4.32;;;2.10;;
59492;SDS011;45497;43.996;22.876;2023-04-03T13:51:18;3.65;;;2.00;;
59492;SDS011;45497;43.996;22.876;2023-04-03T13:56:17;5.10;;;3.53;;
59492;SDS011;45497;43.996;22.876;2023-04-03T13:58:58;7.15;;;4.00;;
59492;SDS011;45497;43.996;22.876;2023-04-03T14:01:41;5.72;;;4.15;;
59492;SDS011;45497;43.996;22.876;2023-04-03T14:04:43;5.30;;;3.50;;
59492;SDS011;45497;43.996;22.876;2023-04-03T14:06:58;4.05;;;3.22;;
59492;SDS011;45497;43.996;22.876;2023-04-03T14:09:24;5.68;;;4.10;;
59492;SDS011;45497;43.996;22.876;2023-04-03T14:11:53;6.47;;;4.38;;
59492;SDS011;45497;43.996;22.876;2023-04-03T14:14:32;7.47;;;4.10;;
59492;SDS011;45497;43.996;22.876;2023-04-03T14:17:01;8.82;;;4.05;;
59492;SDS011;45497;43.996;22.876;2023-04-03T14:19:29;8.85;;;4.80;;
59492;SDS011;45497;43.996;22.876;2023-04-03T14:21:57;6.70;;;4.30;;
59492;SDS011;45497;43.996;22.876;2023-04-03T14:24:24;8.35;;;5.07;;
59492;SDS011;45497;43.996;22.876;2023-04-03T14:26:50;7.50;;;4.10;;
59492;SDS011;45497;43.996;22.876;2023-04-03T14:29:18;5.65;;;3.40;;
59492;SDS011;45497;43.996;22.876;2023-04-03T14:31:44;5.95;;;3.63;;
59492;SDS011;45497;43.996;22.876;2023-04-03T14:34:12;5.47;;;3.40;;
59492;SDS011;45497;43.996;22.876;2023-04-03T14:36:38;5.90;;;3.45;;
59492;SDS011;45497;43.996;22.876;2023-04-03T14:39:06;7.05;;;3.80;;
59492;SDS011;45497;43.996;22.876;2023-04-03T14:41:34;5.47;;;3.38;;
59492;SDS011;45497;43.996;22.876;2023-04-03T14:44:00;4.45;;;3.45;;
59492;SDS011;45497;43.996;22.876;2023-04-03T14:46:30;5.95;;;4.15;;
59492;SDS011;45497;43.996;22.876;2023-04-03T14:48:57;7.93;;;4.05;;
59492;SDS011;45497;43.996;22.876;2023-04-03T14:51:23;6.00;;;3.55;;
59492;SDS011;45497;43.996;22.876;2023-04-03T14:53:49;7.72;;;4.18;;
59492;SDS011;45497;43.996;22.876;2023-04-03T14:58:48;9.88;;;5.05;;
59492;SDS011;45497;43.996;22.876;2023-04-03T15:01:16;9.45;;;4.88;;
59492;SDS011;45497;43.996;22.876;2023-04-03T15:03:43;9.02;;;5.03;;
59492;SDS011;45497;43.996;22.876;2023-04-03T15:06:10;9.20;;;4.82;;
59492;SDS011;45497;43.996;22.876;2023-04-03T15:08:38;8.25;;;5.10;;
59492;SDS011;45497;43.996;22.876;2023-04-03T15:11:03;10.70;;;5.50;;
59492;SDS011;45497;43.996;22.876;2023-04-03T15:13:30;7.72;;;4.70;;
59492;SDS011;45497;43.996;22.876;2023-04-03T15:15:55;7.45;;;5.05;;
59492;SDS011;45497;43.996;22.876;2023-04-03T15:18:22;8.50;;;5.73;;
59492;SDS011;45497;43.996;22.876;2023-04-03T15:20:51;10.27;;;6.40;;
59492;SDS011;45497;43.996;22.876;2023-04-03T15:23:17;6.50;;;5.15;;
59492;SDS011;45497;43.996;22.876;2023-04-03T15:25:44;9.75;;;5.93;;
59492;SDS011;45497;43.996;22.876;2023-04-03T15:28:19;8.00;;;5.53;;
59492;SDS011;45497;43.996;22.876;2023-04-03T15:30:46;10.52;;;6.20;;
59492;SDS011;45497;43.996;22.876;2023-04-03T15:33:12;7.47;;;4.90;;
59492;SDS011;45497;43.996;22.876;2023-04-03T15:35:37;9.13;;;5.27;;
59492;SDS011;45497;43.996;22.876;2023-04-03T15:38:03;7.67;;;5.10;;
59492;SDS011;45497;43.996;22.876;2023-04-03T15:40:28;8.52;;;5.15;;
59492;SDS011;45497;43.996;22.876;2023-04-03T15:42:54;9.43;;;5.47;;
59492;SDS011;45497;43.996;22.876;2023-04-03T15:45:19;6.97;;;5.10;;
59492;SDS011;45497;43.996;22.876;2023-04-03T15:47:46;8.75;;;5.30;;
59492;SDS011;45497;43.996;22.876;2023-04-03T15:50:11;8.73;;;5.53;;
59492;SDS011;45497;43.996;22.876;2023-04-03T15:52:37;8.23;;;5.43;;
59492;SDS011;45497;43.996;22.876;2023-04-03T15:55:03;8.47;;;5.70;;
59492;SDS011;45497;43.996;22.876;2023-04-03T15:57:29;9.30;;;6.18;;
59492;SDS011;45497;43.996;22.876;2023-04-03T15:59:55;11.47;;;6.70;;
59492;SDS011;45497;43.996;22.876;2023-04-03T16:02:21;9.73;;;6.78;;
59492;SDS011;45497;43.996;22.876;2023-04-03T16:04:47;8.32;;;5.10;;
59492;SDS011;45497;43.996;22.876;2023-04-03T16:07:13;9.83;;;5.90;;
59492;SDS011;45497;43.996;22.876;2023-04-03T16:09:38;15.07;;;10.40;;
59492;SDS011;45497;43.996;22.876;2023-04-03T16:12:04;9.40;;;6.53;;
59492;SDS011;45497;43.996;22.876;2023-04-03T16:14:29;7.60;;;5.60;;
59492;SDS011;45497;43.996;22.876;2023-04-03T16:16:56;9.13;;;5.70;;
59492;SDS011;45497;43.996;22.876;2023-04-03T16:19:23;8.07;;;5.77;;
59492;SDS011;45497;43.996;22.876;2023-04-03T16:21:48;8.23;;;4.53;;
59492;SDS011;45497;43.996;22.876;2023-04-03T16:24:14;6.30;;;4.38;;
59492;SDS011;45497;43.996;22.876;2023-04-03T16:26:40;6.95;;;4.80;;
59492;SDS011;45497;43.996;22.876;2023-04-03T16:29:05;6.20;;;5.03;;
59492;SDS011;45497;43.996;22.876;2023-04-03T16:31:31;9.80;;;5.17;;
59492;SDS011;45497;43.996;22.876;2023-04-03T16:33:57;7.82;;;5.57;;
59492;SDS011;45497;43.996;22.876;2023-04-03T16:36:23;8.23;;;5.17;;
59492;SDS011;45497;43.996;22.876;2023-04-03T16:38:50;5.07;;;4.50;;
59492;SDS011;45497;43.996;22.876;2023-04-03T16:41:16;9.98;;;5.78;;
59492;SDS011;45497;43.996;22.876;2023-04-03T16:43:42;14.97;;;7.77;;
59492;SDS011;45497;43.996;22.876;2023-04-03T16:46:07;10.40;;;6.82;;
59492;SDS011;45497;43.996;22.876;2023-04-03T16:48:33;10.07;;;6.37;;
59492;SDS011;45497;43.996;22.876;2023-04-03T16:50:59;8.63;;;5.40;;
59492;SDS011;45497;43.996;22.876;2023-04-03T16:53:25;14.93;;;9.00;;
59492;SDS011;45497;43.996;22.876;2023-04-03T16:55:51;14.27;;;7.60;;
59492;SDS011;45497;43.996;22.876;2023-04-03T16:58:17;13.52;;;8.73;;
59492;SDS011;45497;43.996;22.876;2023-04-03T17:00:43;11.60;;;7.07;;
59492;SDS011;45497;43.996;22.876;2023-04-03T17:03:08;11.07;;;6.73;;
59492;SDS011;45497;43.996;22.876;2023-04-03T17:05:34;9.33;;;6.53;;
59492;SDS011;45497;43.996;22.876;2023-04-03T17:08:00;7.03;;;5.37;;